Main page
METAR-TAF:

METAR-TAF

Airports :

Nîmes–Alès–Camargue–Cévennes Airport

Nîmes, France

latitude: 43-45N, longitude: 004-25E, elevation: 94 m

Current weather observation

The report was made 30 minutes ago, at 23:30 UTC
Wind 3 kt from variable directions
Temperature 2°C
Humidity 93%
Pressure 1009 hPa
Visibility 10 km or more
no clouds below 1500 m and no cumulonimbus

METAR: LFTW 172330Z AUTO VRB03KT CAVOK 02/01 Q1009

Time: 01:00 (00:00 UTC)

Forecast

The report was made 10 hours and 0 minutes ago, at 14:00 UTC
Forecast valid from 17 at 15 UTC to 18 at 15 UTC
Wind 5 kt from variable directions
Visibility 10 km or more
no clouds below 1500 m and no cumulonimbus
Temporary
from 17 at 19 UTC to 18 at 08 UTC
Visibility: 1200 m
mist
Becoming
from 18 at 08 UTC to 18 at 10 UTC
Wind 15 kt from the North

TAF: LFTW 171400Z 1715/1815 VRB05KT CAVOK TEMPO 1719/1808 1200 BR BECMG 1808/1810 36015KT

Weather observations and forecasts of more than 4000 airports (METAR and TAF reports).

The available stations are represented by yellow and red dots on the map.

Hover mouse over dot to see the name of the station.

Then click to see weather observations and forecasts.

To change the map : click on the green buttons with a black cross to zoom in, on the green button with a dash to zoom out, or on the green arrows for adjacent maps.


METAR-TAF: